Time;durP1;ratioP1;P1;durP2;ratioP2;P2;SDS_P1;SDS_P2;PMS_P1;PMS_P2;Temp;Humidity;BMP_temperature;BMP_pressure;BME280_temperature;BME280_humidity;BME280_pressure;Samples;Min_cycle;Max_cycle;Signal;HPM_P1;HPM_P2
2022/09/04 00:01:26;;;;;;;4.32;2.25;;;21.70;99.90;;;;;;4143434;28;20550;-66
2022/09/04 00:03:39;;;;;;;2.33;1.70;;;21.80;99.90;;;;;;4146307;28;20038;-66
2022/09/04 00:05:59;;;;;;;2.53;2.30;;;21.70;99.90;;;;;;4144159;28;20030;-65
2022/09/04 00:08:27;;;;;;;2.65;2.03;;;21.70;99.90;;;;;;4145157;28;20396;-66
2022/09/04 00:10:35;;;;;;;2.78;2.00;;;21.70;99.90;;;;;;4144206;28;20059;-66
2022/09/04 00:13:02;;;;;;;2.42;2.20;;;21.70;99.90;;;;;;4145697;28;20037;-65
2022/09/04 00:15:09;;;;;;;2.35;2.05;;;21.60;99.90;;;;;;4145549;28;20045;-66
2022/09/04 00:17:29;;;;;;;2.65;1.80;;;21.60;99.90;;;;;;4145516;28;20393;-66
2022/09/04 00:19:29;;;;;;;3.17;2.00;;;21.60;99.90;;;;;;4145463;28;20033;-66
2022/09/04 00:21:59;;;;;;;2.88;1.90;;;21.60;99.90;;;;;;4145074;28;20552;-66
2022/09/04 00:24:09;;;;;;;3.00;1.73;;;21.60;99.90;;;;;;4143068;28;20038;-66
2022/09/04 00:26:22;;;;;;;2.20;1.50;;;21.50;99.90;;;;;;4144664;28;20062;-66
2022/09/04 00:28:44;;;;;;;2.55;2.25;;;21.50;99.90;;;;;;4141017;28;20133;-66
2022/09/04 00:30:53;;;;;;;3.25;2.08;;;21.50;99.90;;;;;;4143839;28;20038;-66
2022/09/04 00:33:08;;;;;;;2.08;1.60;;;21.50;99.90;;;;;;4145559;28;20049;-66
2022/09/04 00:35:30;;;;;;;2.90;2.00;;;21.50;99.90;;;;;;4140928;28;20069;-66
2022/09/04 00:37:52;;;;;;;3.67;1.98;;;21.50;99.90;;;;;;4142046;28;20113;-66
2022/09/04 00:39:59;;;;;;;2.53;2.00;;;21.50;99.90;;;;;;4146937;28;20045;-66
2022/09/04 00:42:18;;;;;;;2.42;1.83;;;21.50;99.90;;;;;;4144628;28;20038;-66
2022/09/04 00:45:00;;;;;;;2.85;2.40;;;21.50;99.90;;;;;;4145713;28;20034;-66
2022/09/04 00:47:06;;;;;;;2.85;1.98;;;21.50;99.90;;;;;;4100098;28;20076;-66
2022/09/04 00:49:28;;;;;;;3.33;2.20;;;21.50;99.90;;;;;;4144462;28;20036;-66
2022/09/04 00:52:10;;;;;;;2.20;2.03;;;21.50;99.90;;;;;;4144210;28;20033;-66
2022/09/04 00:54:25;;;;;;;4.97;2.50;;;21.40;99.90;;;;;;4134417;28;20262;-65
2022/09/04 00:57:12;;;;;;;2.30;2.03;;;21.40;99.90;;;;;;4143178;28;20033;-66
2022/09/04 00:59:47;;;;;;;3.85;2.60;;;21.40;99.90;;;;;;4105025;28;20100;-66
2022/09/04 01:01:54;;;;;;;4.13;2.75;;;21.30;99.90;;;;;;4145017;28;20064;-65
2022/09/04 01:04:23;;;;;;;3.22;2.45;;;21.30;99.90;;;;;;4145221;28;20559;-66
2022/09/04 01:06:40;;;;;;;3.78;2.42;;;21.20;99.90;;;;;;4144244;28;20022;-66
2022/09/04 01:08:56;;;;;;;2.88;2.53;;;21.20;99.90;;;;;;4140462;28;20558;-65
2022/09/04 01:11:21;;;;;;;4.93;2.50;;;21.20;99.90;;;;;;4144236;28;20030;-66
2022/09/04 01:13:47;;;;;;;4.43;2.65;;;21.20;99.90;;;;;;4141486;28;20034;-65
2022/09/04 01:16:05;;;;;;;3.22;2.33;;;21.20;99.90;;;;;;4140277;28;20402;-66
2022/09/04 01:18:15;;;;;;;3.63;3.10;;;21.20;99.90;;;;;;4144809;28;20385;-65
2022/09/04 01:20:42;;;;;;;3.67;2.80;;;21.10;99.90;;;;;;4142982;28;20042;-66
2022/09/04 01:23:04;;;;;;;3.08;2.30;;;21.20;99.90;;;;;;4141398;28;20045;-65
2022/09/04 01:25:42;;;;;;;3.97;2.50;;;21.10;99.90;;;;;;4143738;28;20061;-66
2022/09/04 01:28:26;;;;;;;3.72;2.55;;;21.10;99.90;;;;;;4144418;28;20109;-66
2022/09/04 01:30:40;;;;;;;3.53;2.40;;;21.10;99.90;;;;;;4144371;28;20041;-66
2022/09/04 01:33:07;;;;;;;3.90;2.47;;;21.10;99.90;;;;;;4143034;28;20090;-66
2022/09/04 01:35:32;;;;;;;3.55;2.60;;;21.00;99.90;;;;;;4141729;28;20048;-66
2022/09/04 01:38:09;;;;;;;3.65;2.30;;;21.00;99.90;;;;;;4142372;28;20107;-66
2022/09/04 01:40:39;;;;;;;3.05;2.53;;;21.00;99.90;;;;;;4144563;28;20477;-66
2022/09/04 01:43:00;;;;;;;2.92;2.38;;;21.00;99.90;;;;;;4144320;28;20436;-65
2022/09/04 01:45:02;;;;;;;3.40;2.50;;;21.00;99.90;;;;;;4141822;28;20040;-66
2022/09/04 01:47:28;;;;;;;3.05;2.35;;;21.00;99.90;;;;;;4144325;28;20030;-66
2022/09/04 01:50:00;;;;;;;5.28;2.50;;;21.00;99.90;;;;;;4145983;28;20045;-66
2022/09/04 01:52:07;;;;;;;3.30;2.53;;;20.90;99.90;;;;;;4142685;28;20116;-66
2022/09/04 01:54:41;;;;;;;3.83;2.67;;;20.90;99.90;;;;;;4140307;28;20034;-66
2022/09/04 01:56:59;;;;;;;2.78;2.33;;;20.90;99.90;;;;;;4139755;28;20041;-66
2022/09/04 01:59:35;;;;;;;4.07;2.83;;;20.90;99.90;;;;;;4145991;28;20037;-66
2022/09/04 02:01:37;;;;;;;4.43;2.45;;;20.90;99.90;;;;;;4130915;28;20045;-65
2022/09/04 02:03:59;;;;;;;3.08;2.30;;;20.90;99.90;;;;;;4144768;28;20037;-65
2022/09/04 02:06:03;;;;;;;3.10;2.40;;;20.90;99.90;;;;;;4140738;28;20044;-66
2022/09/04 02:08:35;;;;;;;4.35;2.63;;;20.90;99.90;;;;;;4144578;28;20108;-66
2022/09/04 02:10:43;;;;;;;3.10;2.80;;;20.80;99.90;;;;;;4141917;28;20042;-65
2022/09/04 02:13:28;;;;;;;4.47;2.97;;;20.90;99.90;;;;;;4139535;28;20037;-66
2022/09/04 02:15:48;;;;;;;3.95;2.70;;;20.80;99.90;;;;;;4077163;29;20043;-66
2022/09/04 02:18:12;;;;;;;4.55;2.60;;;20.80;99.90;;;;;;4122165;28;20030;-66
2022/09/04 02:20:23;;;;;;;3.80;3.00;;;20.80;99.90;;;;;;4141175;28;20041;-66
2022/09/04 02:22:28;;;;;;;3.05;2.55;;;20.80;99.90;;;;;;4143682;28;20058;-66
2022/09/04 02:25:03;;;;;;;3.30;2.58;;;20.70;99.90;;;;;;4143711;28;20041;-66
2022/09/04 02:27:18;;;;;;;3.40;2.60;;;20.80;99.90;;;;;;4140578;28;20068;-66
2022/09/04 02:29:18;;;;;;;3.70;2.83;;;20.70;99.90;;;;;;4144198;28;20034;-66
2022/09/04 02:31:46;;;;;;;5.93;3.15;;;20.70;99.90;;;;;;4143958;28;20037;-66
2022/09/04 02:34:07;;;;;;;4.57;2.97;;;20.70;99.90;;;;;;4144016;28;20034;-66
2022/09/04 02:36:20;;;;;;;3.53;2.63;;;20.60;99.90;;;;;;4143091;28;20026;-66
2022/09/04 02:38:44;;;;;;;2.97;2.67;;;20.60;99.90;;;;;;4142733;28;20023;-66
2022/09/04 02:41:25;;;;;;;4.55;3.03;;;20.60;99.90;;;;;;4143247;28;20029;-66
2022/09/04 02:43:40;;;;;;;4.68;2.92;;;20.60;99.90;;;;;;4142698;28;20092;-66
2022/09/04 02:46:05;;;;;;;4.95;3.33;;;20.50;99.90;;;;;;4140252;28;20030;-65
2022/09/04 02:48:22;;;;;;;3.33;2.55;;;20.50;99.90;;;;;;4140802;28;20034;-66
2022/09/04 02:50:38;;;;;;;3.75;2.63;;;20.50;99.90;;;;;;4144792;28;20698;-66
2022/09/04 02:53:34;;;;;;;3.45;2.95;;;20.50;99.90;;;;;;4142714;28;20497;-65
2022/09/04 02:56:07;;;;;;;5.45;2.97;;;20.50;99.90;;;;;;4068081;29;20039;-66
2022/09/04 02:58:38;;;;;;;4.97;3.40;;;20.50;99.90;;;;;;4126593;28;20022;-66
2022/09/04 03:01:02;;;;;;;3.25;2.90;;;20.50;99.90;;;;;;4110676;28;20029;-66
2022/09/04 03:03:18;;;;;;;2.60;2.40;;;20.50;99.90;;;;;;4135696;28;20037;-66
2022/09/04 03:05:24;;;;;;;3.30;2.22;;;20.50;99.90;;;;;;4142579;28;20037;-66
2022/09/04 03:07:35;;;;;;;2.90;2.53;;;20.60;99.90;;;;;;4144141;28;20033;-66
2022/09/04 03:09:42;;;;;;;4.45;2.55;;;20.60;99.90;;;;;;4141177;28;20421;-65
2022/09/04 03:12:25;;;;;;;4.53;3.08;;;20.60;99.90;;;;;;4142522;28;20030;-65
2022/09/04 03:14:41;;;;;;;3.45;2.67;;;20.60;99.90;;;;;;4143507;28;20587;-66
2022/09/04 03:17:18;;;;;;;3.80;2.70;;;20.60;99.90;;;;;;4139620;28;20057;-66
2022/09/04 03:19:35;;;;;;;4.82;3.15;;;20.60;99.90;;;;;;4140420;28;20033;-66
2022/09/04 03:21:54;;;;;;;4.18;2.70;;;20.60;99.90;;;;;;4144065;28;20117;-66
2022/09/04 03:24:18;;;;;;;4.15;3.22;;;20.60;99.90;;;;;;4140325;28;20038;-66
2022/09/04 03:26:45;;;;;;;4.15;2.80;;;20.60;99.90;;;;;;4142576;28;20400;-66
2022/09/04 03:29:05;;;;;;;3.80;2.97;;;20.70;99.90;;;;;;4136336;28;20441;-66
2022/09/04 03:31:17;;;;;;;4.20;3.03;;;20.60;99.90;;;;;;4140261;28;20565;-66
2022/09/04 03:33:38;;;;;;;4.35;3.10;;;20.60;99.90;;;;;;4143151;28;20080;-66
2022/09/04 03:36:07;;;;;;;3.60;2.80;;;20.60;99.90;;;;;;4145349;28;20374;-65
2022/09/04 03:38:27;;;;;;;3.10;2.55;;;20.60;99.90;;;;;;4141596;28;20032;-66
2022/09/04 03:40:45;;;;;;;4.10;2.63;;;20.60;99.90;;;;;;4145080;28;20549;-66
2022/09/04 03:42:52;;;;;;;4.40;2.97;;;20.60;99.90;;;;;;4144243;28;20034;-66
2022/09/04 03:45:16;;;;;;;3.55;2.90;;;20.50;99.90;;;;;;4146350;28;20029;-66
2022/09/04 03:47:45;;;;;;;3.10;2.60;;;20.50;99.90;;;;;;4146031;28;20057;-65
2022/09/04 03:49:57;;;;;;;4.20;2.85;;;20.50;99.90;;;;;;4146978;28;20065;-66
2022/09/04 03:52:32;;;;;;;3.92;2.53;;;20.40;99.90;;;;;;4144542;28;20069;-66
2022/09/04 03:54:53;;;;;;;4.15;3.13;;;20.40;99.90;;;;;;4144288;28;20080;-66
2022/09/04 03:57:02;;;;;;;4.00;2.95;;;20.40;99.90;;;;;;4142314;28;20085;-66
2022/09/04 03:59:14;;;;;;;4.95;2.92;;;20.40;99.90;;;;;;4146092;28;20022;-66
2022/09/04 04:01:41;;;;;;;4.07;3.05;;;20.30;99.90;;;;;;4145495;28;20041;-66
2022/09/04 04:04:08;;;;;;;2.50;2.22;;;20.30;99.90;;;;;;4145371;28;20511;-65
2022/09/04 04:06:34;;;;;;;3.33;2.55;;;20.30;99.90;;;;;;4143304;28;20045;-66
2022/09/04 04:08:59;;;;;;;2.85;2.55;;;20.30;99.90;;;;;;4144816;28;20042;-66
2022/09/04 04:11:22;;;;;;;3.42;3.08;;;20.30;99.90;;;;;;4140752;28;20441;-66
2022/09/04 04:13:53;;;;;;;4.40;2.65;;;20.30;99.90;;;;;;4145181;28;20091;-66
2022/09/04 04:16:00;;;;;;;3.45;3.05;;;20.30;99.90;;;;;;4134022;28;20453;-66
2022/09/04 04:18:24;;;;;;;4.38;3.30;;;20.30;99.90;;;;;;4146170;28;20388;-66
2022/09/04 04:21:02;;;;;;;5.63;3.95;;;20.30;99.90;;;;;;4145664;28;20113;-66
2022/09/04 04:23:17;;;;;;;5.72;3.75;;;20.30;99.90;;;;;;4144116;28;20209;-66
2022/09/04 04:25:34;;;;;;;4.43;3.72;;;20.30;99.90;;;;;;4142313;28;20662;-66
2022/09/04 04:27:56;;;;;;;4.93;3.80;;;20.30;99.90;;;;;;4145084;28;20034;-66
2022/09/04 04:30:04;;;;;;;4.78;3.70;;;20.30;99.90;;;;;;4144911;28;20034;-66
2022/09/04 04:32:28;;;;;;;4.93;3.97;;;20.30;99.90;;;;;;4144970;28;20378;-66
2022/09/04 04:34:46;;;;;;;4.38;3.95;;;20.20;99.90;;;;;;4144576;28;20125;-66
2022/09/04 04:37:07;;;;;;;4.75;3.67;;;20.20;99.90;;;;;;4144269;28;20040;-66
2022/09/04 04:39:23;;;;;;;4.20;3.10;;;20.20;99.90;;;;;;4140334;28;20033;-66
2022/09/04 04:44:08;;;;;;;4.00;3.45;;;20.20;99.90;;;;;;4143896;28;20133;-66
2022/09/04 04:46:39;;;;;;;4.60;3.97;;;20.20;99.90;;;;;;4141887;28;20125;-66
2022/09/04 04:49:11;;;;;;;6.00;3.95;;;20.20;99.90;;;;;;4142564;28;20062;-65
2022/09/04 04:51:53;;;;;;;4.97;3.33;;;20.10;99.90;;;;;;4139117;28;20666;-66
2022/09/04 04:54:23;;;;;;;4.82;3.58;;;20.10;99.90;;;;;;4132693;28;20393;-65
2022/09/04 04:56:52;;;;;;;6.85;4.80;;;20.10;99.90;;;;;;4110424;28;20025;-66
2022/09/04 04:59:22;;;;;;;6.93;4.43;;;20.10;99.90;;;;;;4138374;28;20518;-66
2022/09/04 05:01:28;;;;;;;6.07;4.40;;;20.10;99.90;;;;;;4141456;28;20034;-66
2022/09/04 05:03:45;;;;;;;5.15;4.25;;;20.00;99.90;;;;;;4141597;28;20036;-66
2022/09/04 05:05:59;;;;;;;5.00;4.20;;;20.00;99.90;;;;;;4141230;28;20498;-66
2022/09/04 05:08:13;;;;;;;5.60;4.28;;;20.00;99.90;;;;;;4144422;28;20537;-66
2022/09/04 05:10:34;;;;;;;5.95;4.28;;;20.00;99.90;;;;;;4144775;28;20440;-65
2022/09/04 05:12:56;;;;;;;5.50;4.13;;;20.00;99.90;;;;;;4144569;28;20559;-65
2022/09/04 05:15:07;;;;;;;5.93;4.22;;;20.00;99.90;;;;;;4144732;28;20041;-65
2022/09/04 05:17:16;;;;;;;5.75;4.30;;;20.10;99.90;;;;;;4142785;28;20044;-66
2022/09/04 05:19:40;;;;;;;5.28;4.30;;;19.90;99.90;;;;;;4144479;28;20393;-66
2022/09/04 05:22:04;;;;;;;5.60;4.50;;;20.00;99.90;;;;;;4139128;28;20065;-65
2022/09/04 05:24:12;;;;;;;6.53;4.57;;;19.90;99.90;;;;;;4142306;28;20029;-66
2022/09/04 05:26:30;;;;;;;5.75;4.63;;;19.90;99.90;;;;;;4139326;28;20168;-66
2022/09/04 05:28:51;;;;;;;5.53;4.38;;;19.90;99.90;;;;;;4140077;28;20086;-66
2022/09/04 05:31:05;;;;;;;6.38;4.82;;;19.90;99.90;;;;;;4140025;28;20037;-66
2022/09/04 05:33:23;;;;;;;6.07;4.32;;;19.90;99.90;;;;;;4140099;28;20412;-66
2022/09/04 05:35:43;;;;;;;5.53;4.72;;;19.90;99.90;;;;;;4142555;28;20521;-65
2022/09/04 05:38:14;;;;;;;5.45;4.18;;;19.80;99.90;;;;;;4136874;28;20034;-65
2022/09/04 05:40:44;;;;;;;5.03;4.10;;;19.80;99.90;;;;;;4136092;28;20044;-67
2022/09/04 05:42:54;;;;;;;5.68;4.28;;;19.80;99.90;;;;;;4131863;28;20034;-66
2022/09/04 05:45:07;;;;;;;5.68;4.63;;;19.80;99.90;;;;;;4137426;28;20030;-66
2022/09/04 05:47:31;;;;;;;5.57;4.28;;;19.80;99.90;;;;;;4143402;28;20436;-66
2022/09/04 05:49:35;;;;;;;6.72;4.35;;;19.80;99.90;;;;;;4140856;28;20041;-66
2022/09/04 05:52:07;;;;;;;5.80;4.65;;;19.90;99.90;;;;;;4142584;28;20541;-65
2022/09/04 05:54:08;;;;;;;5.43;4.03;;;19.80;99.90;;;;;;4143792;28;20114;-67
2022/09/04 05:56:41;;;;;;;6.07;4.35;;;19.90;99.90;;;;;;4143747;28;20489;-67
2022/09/04 05:59:21;;;;;;;5.72;4.10;;;19.90;99.90;;;;;;4143249;28;20038;-67
2022/09/04 06:01:54;;;;;;;6.05;4.47;;;19.90;99.90;;;;;;4130902;28;20041;-66
2022/09/04 06:04:44;;;;;;;8.43;5.03;;;19.80;99.90;;;;;;4142800;28;20064;-68
2022/09/04 06:07:03;;;;;;;5.70;4.25;;;19.90;99.90;;;;;;4140819;28;20481;-67
2022/09/04 06:09:09;;;;;;;7.45;4.55;;;19.90;99.90;;;;;;4143327;28;20038;-67
2022/09/04 06:11:39;;;;;;;5.32;4.20;;;19.90;99.90;;;;;;4140762;28;20088;-67
2022/09/04 06:13:48;;;;;;;5.55;4.60;;;19.90;99.90;;;;;;4142620;28;20081;-68
2022/09/04 06:16:07;;;;;;;6.75;4.43;;;19.90;99.90;;;;;;4142617;28;20022;-67
2022/09/04 06:18:17;;;;;;;6.03;4.43;;;20.00;99.90;;;;;;4142348;28;20429;-66
2022/09/04 06:20:41;;;;;;;5.15;4.15;;;20.00;99.90;;;;;;4142884;28;20101;-67
2022/09/04 06:23:07;;;;;;;6.45;4.90;;;20.00;99.90;;;;;;4142291;28;20117;-67
2022/09/04 06:25:08;;;;;;;6.30;4.38;;;20.00;99.90;;;;;;4104629;28;20053;-68
2022/09/04 06:27:24;;;;;;;6.57;5.07;;;20.00;99.90;;;;;;4144011;28;20030;-67
2022/09/04 06:29:56;;;;;;;6.07;4.45;;;20.10;99.90;;;;;;4142218;28;20043;-67
2022/09/04 06:32:32;;;;;;;5.57;4.47;;;20.20;99.90;;;;;;4142987;28;20030;-67
2022/09/04 06:34:42;;;;;;;6.28;4.57;;;20.40;99.90;;;;;;4143995;28;20476;-68
2022/09/04 06:37:12;;;;;;;6.35;4.70;;;20.60;99.90;;;;;;4142035;28;20076;-66
2022/09/04 06:39:18;;;;;;;5.47;4.22;;;20.80;99.90;;;;;;4141599;28;20061;-67
2022/09/04 06:41:50;;;;;;;6.18;3.97;;;21.10;99.90;;;;;;4143662;28;20041;-67
2022/09/04 06:44:19;;;;;;;5.97;3.85;;;21.30;99.90;;;;;;4140040;28;20026;-67
2022/09/04 06:46:29;;;;;;;7.10;4.57;;;21.60;99.90;;;;;;4142836;28;20022;-67
2022/09/04 06:48:38;;;;;;;6.07;3.88;;;21.90;99.90;;;;;;4142202;28;20026;-67
2022/09/04 06:50:51;;;;;;;4.85;3.53;;;22.20;99.90;;;;;;4141000;28;20049;-67
2022/09/04 06:53:00;;;;;;;5.38;4.10;;;22.30;99.90;;;;;;4140271;28;20532;-67
2022/09/04 06:55:29;;;;;;;4.65;3.53;;;22.50;99.90;;;;;;4142059;28;20397;-68
2022/09/04 06:57:39;;;;;;;5.47;3.85;;;22.70;99.90;;;;;;4140044;28;20057;-67
2022/09/04 06:59:58;;;;;;;4.63;3.38;;;22.90;99.90;;;;;;4141491;28;20038;-67
2022/09/04 07:02:35;;;;;;;6.13;3.85;;;23.00;99.90;;;;;;4140308;28;20401;-67
2022/09/04 07:05:03;;;;;;;4.60;3.13;;;23.20;99.90;;;;;;4142138;28;20060;-67
2022/09/04 07:07:35;;;;;;;6.80;3.30;;;23.40;99.90;;;;;;4142356;28;20042;-67
2022/09/04 07:10:01;;;;;;;4.63;3.00;;;23.60;99.90;;;;;;4140435;28;20065;-67
2022/09/04 07:12:18;;;;;;;4.25;2.95;;;23.70;99.90;;;;;;4143129;28;20038;-67
2022/09/04 07:14:34;;;;;;;5.80;3.50;;;23.80;99.90;;;;;;4143981;28;20057;-67
2022/09/04 07:17:00;;;;;;;5.63;3.00;;;24.00;99.90;;;;;;4145210;28;20127;-68
2022/09/04 07:19:23;;;;;;;3.30;2.67;;;24.20;99.90;;;;;;4145809;28;20046;-67
2022/09/04 07:21:59;;;;;;;4.10;2.83;;;24.40;99.90;;;;;;4143104;28;20598;-68
2022/09/04 07:24:34;;;;;;;5.63;2.88;;;24.60;99.90;;;;;;4110266;28;20548;-67
2022/09/04 07:26:48;;;;;;;3.15;2.67;;;24.70;99.70;;;;;;4145170;28;20034;-67
2022/09/04 07:29:14;;;;;;;3.65;2.42;;;24.90;99.90;;;;;;4145929;28;20990;-66
2022/09/04 07:31:29;;;;;;;3.55;2.55;;;25.10;98.50;;;;;;4144871;28;20029;-67
2022/09/04 07:33:48;;;;;;;2.65;2.15;;;25.10;98.10;;;;;;4144587;28;20068;-67
2022/09/04 07:36:22;;;;;;;3.95;2.08;;;25.30;98.00;;;;;;4142573;28;20061;-68
2022/09/04 07:39:04;;;;;;;3.28;2.15;;;25.40;97.40;;;;;;4144045;28;20026;-68
2022/09/04 07:41:22;;;;;;;3.65;2.42;;;25.50;97.70;;;;;;4145152;28;20033;-67
2022/09/04 07:44:01;;;;;;;4.13;2.40;;;25.60;96.90;;;;;;4146659;28;20030;-68
2022/09/04 07:46:15;;;;;;;3.90;2.15;;;25.70;96.50;;;;;;4141426;28;20485;-68
2022/09/04 07:48:49;;;;;;;1.88;1.52;;;25.80;96.30;;;;;;4128789;28;20034;-67
2022/09/04 07:51:03;;;;;;;5.15;1.52;;;25.80;95.90;;;;;;4142436;28;20034;-67
2022/09/04 07:53:13;;;;;;;3.03;2.20;;;25.90;96.00;;;;;;4140410;28;20053;-67
2022/09/04 07:55:40;;;;;;;3.28;2.22;;;26.00;96.30;;;;;;4145516;28;20053;-67
2022/09/04 07:57:52;;;;;;;3.88;2.25;;;26.00;95.80;;;;;;4134103;28;20034;-67
2022/09/04 08:00:27;;;;;;;3.28;1.33;;;26.00;95.10;;;;;;4146639;28;20042;-68
2022/09/04 08:02:42;;;;;;;1.90;1.73;;;26.00;95.60;;;;;;4139527;28;20072;-68
2022/09/04 08:04:45;;;;;;;2.45;1.83;;;26.00;95.80;;;;;;4146078;28;20404;-68
2022/09/04 08:07:04;;;;;;;3.53;2.15;;;26.00;95.20;;;;;;4143530;28;20053;-68
2022/09/04 08:09:19;;;;;;;2.40;1.85;;;25.90;95.70;;;;;;4146050;28;20038;-68
2022/09/04 08:11:34;;;;;;;2.38;1.90;;;26.00;95.30;;;;;;4145087;28;20034;-68
2022/09/04 08:14:10;;;;;;;2.30;1.70;;;25.90;94.80;;;;;;4145657;28;20377;-68
2022/09/04 08:16:28;;;;;;;3.90;2.05;;;26.00;95.20;;;;;;4143485;28;20025;-68
2022/09/04 08:18:40;;;;;;;2.47;2.05;;;26.10;95.00;;;;;;4145617;28;20462;-68
2022/09/04 08:21:05;;;;;;;2.45;1.85;;;26.10;94.60;;;;;;4145405;28;20049;-68
2022/09/04 08:23:23;;;;;;;2.03;1.63;;;26.10;94.70;;;;;;4145282;28;20030;-68
2022/09/04 08:25:42;;;;;;;2.47;1.70;;;26.20;95.20;;;;;;4142969;28;20037;-68
2022/09/04 08:28:04;;;;;;;3.25;2.10;;;26.20;94.70;;;;;;4143300;28;20033;-68
2022/09/04 08:30:13;;;;;;;2.45;1.90;;;26.20;94.30;;;;;;4144670;28;20481;-69
2022/09/04 08:32:23;;;;;;;4.43;1.60;;;26.20;94.50;;;;;;4144047;28;20551;-67
2022/09/04 08:35:01;;;;;;;7.50;2.92;;;26.20;94.40;;;;;;4144956;28;20067;-67
2022/09/04 08:37:27;;;;;;;2.58;2.20;;;26.20;94.50;;;;;;4142811;28;20045;-67
2022/09/04 08:39:27;;;;;;;3.55;1.98;;;26.20;94.40;;;;;;4145946;28;20042;-67
2022/09/04 08:41:40;;;;;;;2.70;2.13;;;26.20;94.40;;;;;;4145747;28;20044;-68
2022/09/04 08:44:19;;;;;;;2.13;1.70;;;26.10;94.10;;;;;;4145284;28;20056;-68
2022/09/04 08:47:09;;;;;;;2.65;1.60;;;26.20;94.60;;;;;;4067127;29;20127;-68
2022/09/04 08:49:25;;;;;;;2.33;1.60;;;26.30;94.50;;;;;;4089476;28;20596;-69
2022/09/04 08:51:43;;;;;;;2.03;1.40;;;26.40;94.30;;;;;;4144784;28;20037;-68
2022/09/04 08:53:56;;;;;;;4.13;1.98;;;26.40;94.20;;;;;;4141573;28;20374;-67
2022/09/04 08:55:57;;;;;;;;;;;26.50;94.00;;;;;;4144768;28;20029;-68
2022/09/04 08:58:31;;;;;;;2.63;1.83;;;26.60;94.00;;;;;;4144539;28;19916;-68
2022/09/04 09:00:51;;;;;;;4.10;2.17;;;26.60;94.00;;;;;;4113005;28;20021;-68
2022/09/04 09:03:03;;;;;;;2.92;2.00;;;26.60;94.00;;;;;;4145573;28;20033;-68
2022/09/04 09:05:34;;;;;;;2.30;1.75;;;26.60;93.50;;;;;;4143144;28;20038;-68
2022/09/04 09:08:09;;;;;;;2.92;1.73;;;26.60;93.50;;;;;;4142976;28;20092;-68
2022/09/04 09:10:47;;;;;;;1.80;1.50;;;26.70;93.50;;;;;;4144177;28;20037;-69
2022/09/04 09:13:26;;;;;;;3.40;1.70;;;26.70;93.60;;;;;;4144527;28;20084;-67
2022/09/04 09:15:30;;;;;;;2.97;1.90;;;26.80;93.50;;;;;;4144418;28;21070;-68
2022/09/04 09:17:47;;;;;;;1.70;1.40;;;26.90;92.70;;;;;;4145378;28;20069;-68
2022/09/04 09:19:56;;;;;;;2.67;1.80;;;26.90;93.40;;;;;;4144206;28;20050;-68
2022/09/04 09:22:18;;;;;;;3.38;1.77;;;27.00;93.40;;;;;;4143718;28;20041;-68
2022/09/04 09:24:40;;;;;;;1.50;1.40;;;27.10;92.90;;;;;;4143414;28;20560;-67
2022/09/04 09:27:14;;;;;;;2.28;1.80;;;27.10;93.00;;;;;;4142363;28;20029;-68
2022/09/04 09:29:28;;;;;;;3.92;1.38;;;27.20;92.10;;;;;;4143385;28;20033;-68
2022/09/04 09:32:00;;;;;;;1.65;1.30;;;27.10;92.60;;;;;;4140312;28;20026;-68
2022/09/04 09:34:13;;;;;;;2.58;1.65;;;27.10;92.40;;;;;;4141723;28;20042;-68
2022/09/04 09:36:51;;;;;;;2.15;1.45;;;27.10;92.10;;;;;;4144406;28;20531;-68
2022/09/04 09:39:14;;;;;;;4.57;1.60;;;27.20;92.40;;;;;;4144305;28;20168;-69
2022/09/04 09:41:40;;;;;;;3.97;1.58;;;27.30;92.50;;;;;;4143938;28;20030;-68
2022/09/04 09:44:06;;;;;;;2.25;1.63;;;27.40;92.50;;;;;;4143093;28;20429;-68
2022/09/04 09:46:30;;;;;;;2.38;1.42;;;27.40;91.70;;;;;;4141296;28;21720;-68
2022/09/04 09:48:52;;;;;;;1.90;1.50;;;27.40;91.80;;;;;;4143010;28;20018;-69
2022/09/04 09:51:20;;;;;;;1.98;1.48;;;27.40;91.50;;;;;;4142648;28;20076;-68
2022/09/04 09:53:33;;;;;;;3.30;1.90;;;27.40;91.10;;;;;;4143255;28;20048;-68
2022/09/04 09:56:15;;;;;;;3.08;1.77;;;27.50;91.70;;;;;;4140716;28;20048;-68
2022/09/04 09:58:45;;;;;;;1.45;1.35;;;27.40;90.80;;;;;;4143664;28;20121;-69
2022/09/04 10:00:58;;;;;;;6.50;1.70;;;27.50;91.30;;;;;;4142429;28;20456;-68
2022/09/04 10:03:23;;;;;;;4.13;1.70;;;27.50;91.40;;;;;;4139104;28;20034;-68
2022/09/04 10:05:44;;;;;;;1.83;1.50;;;27.60;91.50;;;;;;4139899;28;20120;-68
2022/09/04 10:08:09;;;;;;;1.45;1.30;;;27.60;90.80;;;;;;4143035;28;20481;-68
2022/09/04 10:10:47;;;;;;;1.85;1.65;;;27.70;90.80;;;;;;4143585;28;20104;-68
2022/09/04 10:13:14;;;;;;;2.78;1.67;;;27.70;90.60;;;;;;4140995;28;20559;-67
2022/09/04 10:15:21;;;;;;;2.20;1.40;;;27.70;91.10;;;;;;4143459;28;20113;-68
2022/09/04 10:17:50;;;;;;;3.15;1.50;;;27.70;90.70;;;;;;4141207;28;20029;-68
2022/09/04 10:20:09;;;;;;;2.95;1.90;;;27.80;90.20;;;;;;4144413;28;20105;-68
2022/09/04 10:22:31;;;;;;;2.10;1.38;;;27.90;90.50;;;;;;4143436;28;20045;-68
2022/09/04 10:24:53;;;;;;;2.17;1.07;;;27.90;90.20;;;;;;4140374;28;20121;-68
2022/09/04 10:27:17;;;;;;;2.83;1.65;;;28.00;90.70;;;;;;4143104;28;20037;-67
2022/09/04 10:29:30;;;;;;;4.40;2.25;;;28.00;90.20;;;;;;4131048;28;20026;-67
2022/09/04 10:31:46;;;;;;;2.03;1.42;;;28.10;90.80;;;;;;4142657;28;20060;-68
2022/09/04 10:33:55;;;;;;;1.95;1.50;;;28.20;90.80;;;;;;4139885;28;20064;-68
2022/09/04 10:36:29;;;;;;;13.38;1.77;;;28.20;89.60;;;;;;4141250;28;20040;-68
2022/09/04 10:40:34;;;;;;;1.55;1.27;;;28.30;88.70;;;;;;4141746;28;20537;-68
2022/09/04 10:41:44;;;;;;;1.52;1.40;;;28.40;90.50;;;;;;4140692;28;20032;-68
2022/09/04 10:44:18;;;;;;;1.80;1.20;;;28.40;88.10;;;;;;4135972;28;20038;-67
2022/09/04 10:46:41;;;;;;;1.55;1.33;;;28.50;88.70;;;;;;4113519;28;20032;-68
2022/09/04 10:49:06;;;;;;;2.88;1.58;;;28.50;88.00;;;;;;4144004;28;20481;-67
2022/09/04 10:51:37;;;;;;;1.98;1.20;;;28.50;87.50;;;;;;4140760;28;20080;-68
2022/09/04 10:54:03;;;;;;;2.08;1.48;;;28.50;88.30;;;;;;4143638;28;20067;-67
2022/09/04 10:56:08;;;;;;;2.28;1.15;;;28.50;87.20;;;;;;4139409;28;20485;-68
2022/09/04 10:58:27;;;;;;;1.73;1.17;;;28.50;86.10;;;;;;4141839;28;20034;-68
2022/09/04 11:00:48;;;;;;;1.98;1.38;;;28.50;87.00;;;;;;4143268;28;20061;-68
2022/09/04 11:03:13;;;;;;;1.95;1.27;;;28.50;86.20;;;;;;4142082;28;20072;-67
2022/09/04 11:05:36;;;;;;;1.98;1.30;;;28.50;87.40;;;;;;4138140;28;20038;-68
2022/09/04 11:08:12;;;;;;;1.40;1.20;;;28.60;86.80;;;;;;4142233;28;20038;-67
2022/09/04 11:10:37;;;;;;;1.88;1.38;;;28.50;86.60;;;;;;4135696;28;20496;-68
2022/09/04 11:13:14;;;;;;;2.58;1.15;;;28.50;84.70;;;;;;4142488;28;20038;-68
2022/09/04 11:15:36;;;;;;;1.63;1.10;;;28.50;86.40;;;;;;4139102;28;20038;-68
2022/09/04 11:18:03;;;;;;;1.48;1.00;;;28.50;85.80;;;;;;4143365;28;20030;-67
2022/09/04 11:20:22;;;;;;;1.65;1.30;;;28.50;86.20;;;;;;4134124;28;20038;-67
2022/09/04 11:22:26;;;;;;;3.35;1.35;;;28.40;85.50;;;;;;4116235;28;20096;-67
2022/09/04 11:25:20;;;;;;;2.63;0.88;;;28.50;86.10;;;;;;4141706;28;20030;-68
2022/09/04 11:27:20;;;;;;;0.90;0.90;;;28.50;84.70;;;;;;4092356;29;20548;-68
2022/09/04 11:29:28;;;;;;;1.88;1.20;;;28.50;83.50;;;;;;4093460;29;20060;-68
2022/09/04 11:32:10;;;;;;;1.85;1.20;;;28.40;85.10;;;;;;4094832;28;20094;-68
2022/09/04 11:34:14;;;;;;;1.90;0.93;;;28.50;83.80;;;;;;4141992;28;20101;-67
2022/09/04 11:36:34;;;;;;;1.17;1.08;;;28.60;84.10;;;;;;4142764;28;20485;-67
2022/09/04 11:39:03;;;;;;;1.83;1.05;;;28.60;83.50;;;;;;4143395;28;20030;-68
2022/09/04 11:41:36;;;;;;;2.13;1.10;;;28.60;83.60;;;;;;4142323;28;20489;-68
2022/09/04 11:44:23;;;;;;;0.80;0.80;;;28.60;86.00;;;;;;4134621;28;20022;-68
2022/09/04 11:46:33;;;;;;;2.38;1.48;;;28.60;83.80;;;;;;4139962;28;20109;-68
2022/09/04 11:48:49;;;;;;;1.30;0.95;;;28.60;86.70;;;;;;4142994;28;20080;-68
2022/09/04 11:51:15;;;;;;;1.13;0.85;;;28.60;84.80;;;;;;4141438;28;20034;-68
2022/09/04 11:53:43;;;;;;;1.13;0.88;;;28.60;83.40;;;;;;4143171;28;20042;-69
2022/09/04 11:56:07;;;;;;;1.75;1.00;;;28.60;83.00;;;;;;4144024;28;20054;-67
2022/09/04 11:58:29;;;;;;;1.63;1.00;;;28.60;82.80;;;;;;4144477;28;20036;-68
2022/09/04 12:00:58;;;;;;;1.38;1.25;;;28.60;84.40;;;;;;4144974;28;20034;-68
2022/09/04 12:03:16;;;;;;;1.13;0.85;;;28.60;83.20;;;;;;4104320;28;20046;-68
2022/09/04 12:05:38;;;;;;;1.20;1.00;;;28.50;88.00;;;;;;4145471;28;20068;-68
2022/09/04 12:08:07;;;;;;;2.53;0.98;;;28.50;85.00;;;;;;4146395;28;20034;-67
2022/09/04 12:10:42;;;;;;;1.10;0.90;;;28.60;83.80;;;;;;4145598;28;20050;-70
2022/09/04 12:12:45;;;;;;;1.23;0.80;;;28.50;82.00;;;;;;4141774;28;20129;-67
2022/09/04 12:15:11;;;;;;;1.73;0.80;;;28.50;81.60;;;;;;4145999;28;20064;-67
2022/09/04 12:17:36;;;;;;;1.20;1.10;;;28.50;81.80;;;;;;4143050;28;20034;-67
2022/09/04 12:19:55;;;;;;;1.92;1.00;;;28.60;82.20;;;;;;4141722;28;20034;-68
2022/09/04 12:22:34;;;;;;;2.55;1.27;;;28.60;81.90;;;;;;4143495;28;20050;-68